Soudan, Minnesota
Current Conditions -  °F | °C
As of 6:13 PM on Wednesday 26 Nov 2014 (Local Time) from KELO Reporting Station
Clear Clear  
Wind Chill: -8°   Ceiling: Unl
Heat Index:   Visibility: 10mi
Dew Point: -4°   Wind: 5mph
Humidity: 78%   Direction: 320°NW
Pressure: 30.3"   Gusts: NA
Location:  47.82°N, 92.24°W
Report Text: KELO 270013Z AUTO 32004KT 10SM CLR M17/M20 A3030 RMK AO2
Loading
Personal Weather Stations






























Interactive Weather Map New forecast layout! Learn more

10-Day Weather Forecast

Advertisements
Track Severe Weather on mobile